Time;durP1;ratioP1;P1;durP2;ratioP2;P2;SDS_P1;SDS_P2;PMS_P1;PMS_P2;Temp;Humidity;BMP_temperature;BMP_pressure;BME280_temperature;BME280_humidity;BME280_pressure;Samples;Min_cycle;Max_cycle;Signal;HPM_P1;HPM_P2
2022/08/14 00:01:48;;;;;;;6.47;3.78;;;;;;;24.87;42.46;101148.13;4960583;28;20073;-55
2022/08/14 00:04:13;;;;;;;10.00;4.03;;;;;;;24.85;42.46;101142.00;4959345;28;20045;-56
2022/08/14 00:06:39;;;;;;;5.03;3.88;;;;;;;24.83;42.67;101141.19;4955912;28;20046;-51
2022/08/14 00:09:04;;;;;;;5.30;4.13;;;;;;;24.80;42.86;101136.00;4962911;28;20041;-53
2022/08/14 00:11:30;;;;;;;8.77;4.32;;;;;;;24.77;42.47;101133.47;4973519;28;20049;-56
2022/08/14 00:13:56;;;;;;;9.80;4.38;;;;;;;24.72;42.61;101137.13;4959318;28;20111;-56
2022/08/14 00:16:21;;;;;;;6.97;4.18;;;;;;;24.67;43.05;101133.75;4962228;28;21943;-50
2022/08/14 00:18:46;;;;;;;8.75;4.25;;;;;;;24.64;42.99;101132.06;4963913;28;20061;-55
2022/08/14 00:21:12;;;;;;;6.40;4.43;;;;;;;24.61;43.19;101122.47;4961632;28;20047;-57
2022/08/14 00:23:38;;;;;;;5.57;4.10;;;;;;;24.56;43.29;101124.34;4957154;28;20705;-56
2022/08/14 00:26:03;;;;;;;10.38;4.50;;;;;;;24.57;43.39;101117.34;4958684;28;20022;-53
2022/08/14 00:28:29;;;;;;;6.45;3.97;;;;;;;24.58;43.41;101121.72;4967260;28;20070;-52
2022/08/14 00:30:56;;;;;;;4.68;3.95;;;;;;;24.57;43.78;101120.84;4958814;28;20046;-55
2022/08/14 00:33:24;;;;;;;7.30;4.50;;;;;;;24.53;43.61;101108.69;4959865;28;20034;-54
2022/08/14 00:35:49;;;;;;;8.18;4.57;;;;;;;24.49;43.60;101104.41;4968972;28;20555;-55
2022/08/14 00:38:17;;;;;;;5.80;4.18;;;;;;;24.50;43.47;101102.63;4958909;28;20165;-51
2022/08/14 00:40:42;;;;;;;10.40;5.00;;;;;;;24.49;44.60;101093.88;4962925;28;20691;-56
2022/08/14 00:43:08;;;;;;;6.63;4.25;;;;;;;24.44;43.97;101095.75;4957752;28;20038;-55
2022/08/14 00:45:35;;;;;;;6.82;4.43;;;;;;;24.41;44.70;101090.59;4958090;28;20035;-56
2022/08/14 00:48:00;;;;;;;6.38;4.45;;;;;;;24.42;43.93;101092.31;4959059;28;22132;-53
2022/08/14 00:50:29;;;;;;;6.47;4.15;;;;;;;24.40;44.52;101088.88;4960997;28;20035;-55
2022/08/14 00:52:58;;;;;;;6.03;4.38;;;;;;;24.39;44.49;101091.53;4954938;28;20113;-55
2022/08/14 00:55:26;;;;;;;6.07;4.53;;;;;;;24.34;44.86;101087.25;4961583;28;20131;-55
2022/08/14 01:00:38;;;;;;;8.75;4.55;;;;;;;24.31;45.04;101089.06;4957805;28;20533;-54
2022/08/14 01:03:05;;;;;;;5.72;4.45;;;;;;;24.28;45.06;101086.53;4961558;28;20024;-55
2022/08/14 01:05:30;;;;;;;6.65;4.55;;;;;;;24.27;44.87;101084.81;4959784;28;20035;-56
2022/08/14 01:07:57;;;;;;;8.88;4.53;;;;;;;24.19;44.87;101078.84;4957387;28;20076;-55
2022/08/14 01:10:49;;;;;;;7.90;5.20;;;;;;;24.21;44.66;101066.56;4958641;28;20053;-56
2022/08/14 01:13:09;;;;;;;7.35;4.53;;;;;;;24.21;45.07;101066.56;4959551;28;20133;-56
2022/08/14 01:15:35;;;;;;;8.02;5.28;;;;;;;24.17;45.09;101063.13;4956706;28;20133;-49
2022/08/14 01:21:03;;;;;;;6.57;4.80;;;;;;;24.16;44.99;101063.19;4959167;28;20085;-56
2022/08/14 01:23:30;;;;;;;6.75;5.30;;;;;;;24.11;45.05;101051.94;4958569;28;20031;-55
2022/08/14 01:25:57;;;;;;;5.90;4.88;;;;;;;24.06;45.22;101052.03;4967772;28;20029;-56
2022/08/14 01:28:24;;;;;;;6.82;5.00;;;;;;;24.03;45.26;101046.88;4960309;28;20039;-56
2022/08/14 01:30:54;;;;;;;8.70;4.90;;;;;;;23.98;45.31;101044.34;4957345;28;20234;-55
2022/08/14 01:33:27;;;;;;;9.80;5.65;;;;;;;23.98;45.28;101043.47;4958410;28;20403;-51
2022/08/14 01:35:57;;;;;;;7.07;4.97;;;;;;;23.96;45.26;101048.75;4958801;28;20066;-56
2022/08/14 01:38:25;;;;;;;11.55;5.35;;;;;;;23.97;44.93;101045.25;4958230;28;20039;-55
2022/08/14 01:40:51;;;;;;;9.20;5.33;;;;;;;23.89;45.47;101044.56;4958539;28;20177;-54
2022/08/14 01:43:17;;;;;;;11.90;5.05;;;;;;;23.87;45.51;101042.88;4958194;28;20294;-55
2022/08/14 01:45:44;;;;;;;7.43;5.32;;;;;;;23.76;45.71;101053.63;4958286;28;20023;-55
2022/08/14 01:48:09;;;;;;;10.57;5.45;;;;;;;23.84;45.72;101048.19;4962834;28;20116;-56
2022/08/14 01:50:35;;;;;;;10.50;6.13;;;;;;;23.78;45.36;101051.81;4960596;28;20042;-56
2022/08/14 01:53:01;;;;;;;9.32;6.70;;;;;;;23.76;45.38;101053.63;4956480;28;20043;-52
2022/08/14 01:55:30;;;;;;;7.65;5.85;;;;;;;23.76;45.52;101037.88;4958387;28;20030;-54
2022/08/14 01:57:57;;;;;;;9.75;5.60;;;;;;;23.72;45.74;101049.34;4957060;28;20039;-55
2022/08/14 02:00:23;;;;;;;9.60;6.68;;;;;;;23.62;45.81;101046.09;4958220;28;20072;-51
2022/08/14 02:02:48;;;;;;;8.23;6.35;;;;;;;23.61;45.97;101046.94;4958472;28;20479;-55
2022/08/14 02:05:14;;;;;;;9.13;5.80;;;;;;;23.60;45.91;101050.47;4957310;28;20038;-54
2022/08/14 02:07:42;;;;;;;9.85;5.82;;;;;;;23.59;46.11;101042.63;4954848;28;20047;-55
2022/08/14 02:10:10;;;;;;;6.70;5.95;;;;;;;23.53;46.50;101041.00;4958351;28;20504;-53
2022/08/14 02:12:36;;;;;;;8.25;5.63;;;;;;;23.52;46.11;101028.78;4959756;28;20093;-50
2022/08/14 02:15:04;;;;;;;7.55;5.45;;;;;;;23.47;46.35;101030.63;4958196;28;21775;-55
2022/08/14 02:17:33;;;;;;;6.25;5.30;;;;;;;23.46;46.50;101034.16;4957879;28;20076;-55
2022/08/14 02:19:58;;;;;;;7.45;5.55;;;;;;;23.42;46.92;101035.13;4956639;28;20536;-51
2022/08/14 02:22:24;;;;;;;9.23;5.55;;;;;;;23.39;46.78;101036.06;4956590;28;20062;-54
2022/08/14 02:24:50;;;;;;;6.75;5.18;;;;;;;23.32;46.82;101042.34;4956832;28;20039;-51
2022/08/14 02:27:17;;;;;;;8.52;5.40;;;;;;;23.31;46.81;101037.13;4959167;28;20038;-55
2022/08/14 02:29:43;;;;;;;9.30;5.75;;;;;;;23.24;46.75;101036.41;4957931;28;20577;-54
2022/08/14 02:32:10;;;;;;;8.50;5.80;;;;;;;23.23;46.94;101043.38;4954970;28;20926;-53
2022/08/14 02:34:37;;;;;;;8.75;5.68;;;;;;;23.17;47.11;101027.78;4958654;28;20030;-55
2022/08/14 02:37:11;;;;;;;6.85;5.28;;;;;;;23.27;46.70;101038.94;4956477;28;20043;-51
2022/08/14 02:39:45;;;;;;;9.02;5.80;;;;;;;23.18;47.08;101031.28;4956738;28;20450;-56
2022/08/14 02:42:14;;;;;;;8.85;6.40;;;;;;;23.14;47.38;101033.09;4957861;28;20554;-55
2022/08/14 02:44:42;;;;;;;8.07;6.47;;;;;;;23.10;47.26;101036.69;4956119;28;20035;-54
2022/08/14 02:47:08;;;;;;;9.00;6.28;;;;;;;23.06;47.58;101035.03;4957093;28;20034;-55
2022/08/14 02:49:35;;;;;;;8.57;6.10;;;;;;;23.02;47.45;101036.00;4955566;28;20787;-54
2022/08/14 02:52:02;;;;;;;11.40;6.43;;;;;;;22.99;47.59;101033.41;4958384;28;20077;-55
2022/08/14 02:54:29;;;;;;;11.95;6.50;;;;;;;22.97;47.83;101029.97;4956666;28;20027;-56
2022/08/14 02:56:56;;;;;;;9.88;6.13;;;;;;;22.97;47.47;101025.59;4958722;28;20050;-52
2022/08/14 02:59:28;;;;;;;6.88;5.95;;;;;;;22.93;47.90;101025.66;4955406;28;20128;-51
2022/08/14 03:01:54;;;;;;;10.43;5.60;;;;;;;22.87;47.81;101031.94;4957410;28;20551;-55
2022/08/14 03:04:20;;;;;;;10.38;6.07;;;;;;;22.81;48.33;101024.13;4956716;28;20557;-56
2022/08/14 03:06:47;;;;;;;11.32;7.60;;;;;;;22.80;48.34;101022.41;4961388;28;20498;-56
2022/08/14 03:09:12;;;;;;;8.82;6.80;;;;;;;22.81;48.27;101012.78;4955572;28;20387;-55
2022/08/14 03:11:38;;;;;;;8.45;6.82;;;;;;;22.68;48.64;101012.16;4954925;28;20046;-56
2022/08/14 03:14:04;;;;;;;7.05;6.05;;;;;;;22.70;48.89;101010.38;4956785;28;20043;-52
2022/08/14 03:16:34;;;;;;;7.93;6.10;;;;;;;22.71;48.80;101012.13;4961803;28;20422;-52
2022/08/14 03:19:01;;;;;;;6.72;6.03;;;;;;;22.64;49.05;101010.50;4962056;28;20042;-55
2022/08/14 03:21:30;;;;;;;8.45;5.53;;;;;;;22.55;49.32;101006.28;4958028;28;20063;-56
2022/08/14 03:24:29;;;;;;;7.05;5.90;;;;;;;22.61;49.44;101013.19;4962964;28;20037;-55
2022/08/14 03:26:48;;;;;;;7.13;6.00;;;;;;;22.52;49.16;101013.38;4964078;28;20039;-55
2022/08/14 03:29:19;;;;;;;6.85;6.05;;;;;;;22.44;49.81;101011.72;4959775;28;20038;-52
2022/08/14 03:31:45;;;;;;;8.38;6.38;;;;;;;22.40;49.68;101004.84;4958378;28;20130;-53
2022/08/14 03:34:11;;;;;;;9.73;6.68;;;;;;;22.37;49.72;101004.00;4962834;28;20117;-54
2022/08/14 03:36:39;;;;;;;9.43;6.43;;;;;;;22.35;49.99;101006.69;4961117;28;20161;-50
2022/08/14 03:39:06;;;;;;;8.65;6.32;;;;;;;22.31;50.26;100999.75;4958338;28;20043;-52
2022/08/14 03:41:31;;;;;;;10.95;6.93;;;;;;;22.34;50.24;101004.09;4960153;28;20593;-55
2022/08/14 03:44:00;;;;;;;8.57;6.90;;;;;;;22.30;50.09;101003.28;4956928;28;20031;-55
2022/08/14 03:46:36;;;;;;;10.00;6.55;;;;;;;22.28;50.21;100993.72;4964283;28;20043;-54
2022/08/14 03:49:04;;;;;;;8.30;6.78;;;;;;;22.26;51.03;100988.50;4958209;28;20106;-55
2022/08/14 03:51:31;;;;;;;8.98;6.82;;;;;;;22.25;51.18;100991.16;4960772;28;20031;-49
2022/08/14 03:53:58;;;;;;;12.20;7.10;;;;;;;22.23;51.10;100988.56;4956817;28;20042;-51
2022/08/14 03:56:25;;;;;;;12.77;7.43;;;;;;;22.15;50.95;100990.47;4962572;28;20499;-55
2022/08/14 03:58:54;;;;;;;7.65;6.70;;;;;;;22.15;51.04;100987.84;4961713;28;20088;-53
2022/08/14 04:01:22;;;;;;;11.45;6.68;;;;;;;22.14;51.07;100992.19;4961794;28;20026;-54
2022/08/14 04:03:48;;;;;;;10.70;6.50;;;;;;;22.10;51.33;100987.91;4960816;28;20482;-56
2022/08/14 04:06:15;;;;;;;7.55;6.70;;;;;;;22.10;51.62;100997.53;4958130;28;20045;-52
2022/08/14 04:08:42;;;;;;;12.70;7.30;;;;;;;22.05;51.11;101000.19;4960827;28;20502;-55
2022/08/14 04:11:09;;;;;;;11.23;6.75;;;;;;;22.01;51.42;101005.50;4956455;28;20034;-54
2022/08/14 04:13:37;;;;;;;8.10;7.20;;;;;;;21.97;51.59;100999.47;4958078;28;20031;-55
2022/08/14 04:16:06;;;;;;;7.82;6.70;;;;;;;21.93;51.96;100993.41;4956863;28;20502;-53
2022/08/14 04:18:32;;;;;;;7.80;6.72;;;;;;;21.90;52.10;100990.84;4961033;28;20031;-55
2022/08/14 04:20:58;;;;;;;9.18;6.85;;;;;;;21.87;52.05;100990.03;4960585;28;20039;-54
2022/08/14 04:23:24;;;;;;;7.85;7.03;;;;;;;21.82;52.35;100989.22;4959426;28;20039;-50
2022/08/14 04:25:53;;;;;;;9.90;7.22;;;;;;;21.75;52.09;100985.84;4955742;28;20080;-52
2022/08/14 04:28:20;;;;;;;8.80;7.50;;;;;;;21.73;52.93;100984.16;4958128;28;20027;-50
2022/08/14 04:30:46;;;;;;;9.43;7.32;;;;;;;21.66;53.25;100980.78;4958761;28;20057;-54
2022/08/14 04:33:13;;;;;;;9.27;6.93;;;;;;;21.67;53.00;100983.38;4957076;28;20479;-54
2022/08/14 04:35:39;;;;;;;8.65;7.53;;;;;;;21.66;53.04;100978.16;4956921;28;20499;-55
2022/08/14 04:43:38;;;;;;;8.98;8.05;;;;;;;21.55;53.57;100975.69;4959938;28;20851;-54
2022/08/14 04:46:15;;;;;;;10.88;8.57;;;;;;;21.60;53.54;100973.88;4957490;28;20459;-55
2022/08/14 04:48:40;;;;;;;11.68;8.30;;;;;;;21.59;53.78;100963.41;4959220;28;20062;-54
2022/08/14 04:51:11;;;;;;;10.15;7.90;;;;;;;21.57;53.31;100963.44;4958292;28;20168;-53
2022/08/14 04:53:41;;;;;;;9.27;8.10;;;;;;;21.50;53.79;100966.19;4958436;28;20102;-55
2022/08/14 04:56:07;;;;;;;10.18;7.85;;;;;;;21.50;54.12;100971.44;4956795;28;20034;-53
2022/08/14 04:58:33;;;;;;;10.23;8.60;;;;;;;21.50;54.50;100968.81;4960678;28;20022;-54
2022/08/14 05:01:01;;;;;;;11.48;8.00;;;;;;;21.53;53.76;100960.91;4961038;28;20602;-51
2022/08/14 05:03:32;;;;;;;11.60;8.68;;;;;;;21.50;54.09;100959.22;4958629;28;20031;-54
2022/08/14 05:06:00;;;;;;;12.30;8.48;;;;;;;21.52;53.68;100961.78;4957410;28;20474;-55
2022/08/14 05:08:26;;;;;;;10.30;8.25;;;;;;;21.49;54.26;100954.00;4958152;28;20056;-56
2022/08/14 05:10:53;;;;;;;10.50;8.40;;;;;;;21.53;54.81;100958.28;4957832;28;21734;-55
2022/08/14 05:13:22;;;;;;;10.88;9.00;;;;;;;21.44;54.74;100946.22;4963474;28;20057;-54
2022/08/14 05:15:48;;;;;;;12.57;9.25;;;;;;;21.51;55.09;100945.22;4958651;28;20099;-55
2022/08/14 05:18:22;;;;;;;11.07;8.60;;;;;;;21.53;54.54;100950.44;4957551;28;20078;-53
2022/08/14 05:20:50;;;;;;;12.10;9.13;;;;;;;21.55;54.64;100956.53;4957050;28;20466;-54
2022/08/14 05:23:18;;;;;;;12.60;9.05;;;;;;;21.56;54.55;100953.03;4957765;28;20649;-51
2022/08/14 05:25:46;;;;;;;13.48;9.93;;;;;;;21.62;54.76;100956.41;4956107;28;20506;-54
2022/08/14 05:28:19;;;;;;;13.88;9.85;;;;;;;21.58;55.37;100956.47;4953366;28;20031;-54
2022/08/14 05:30:45;;;;;;;13.85;9.50;;;;;;;21.60;55.13;100947.72;4955935;28;20677;-52
2022/08/14 05:33:13;;;;;;;10.27;9.25;;;;;;;21.61;54.50;100948.59;4963265;28;20027;-54
2022/08/14 05:35:39;;;;;;;12.02;9.70;;;;;;;21.62;54.89;100958.16;4958908;28;20015;-55
2022/08/14 05:38:09;;;;;;;14.35;9.77;;;;;;;21.63;54.54;100954.66;4957847;28;20050;-50
2022/08/14 05:40:34;;;;;;;15.10;10.57;;;;;;;21.63;54.36;100944.19;4960515;28;20057;-55
2022/08/14 05:43:01;;;;;;;11.50;9.88;;;;;;;21.62;54.80;100947.69;4962027;28;20112;-54
2022/08/14 05:45:26;;;;;;;16.45;11.35;;;;;;;21.66;54.68;100952.00;4958181;28;20045;-55
2022/08/14 05:47:51;;;;;;;11.32;10.18;;;;;;;21.68;54.66;100952.81;4957729;28;20051;-50
2022/08/14 05:50:17;;;;;;;13.98;10.65;;;;;;;21.72;54.39;100944.03;4955686;28;20038;-56
2022/08/14 05:52:42;;;;;;;12.40;11.10;;;;;;;21.70;54.76;100943.19;4957457;28;20046;-56
2022/08/14 05:55:10;;;;;;;11.90;10.50;;;;;;;21.75;54.28;100943.97;4960471;28;20026;-55
2022/08/14 05:58:05;;;;;;;12.90;10.52;;;;;;;21.87;54.19;100938.53;4957514;28;20084;-52
2022/08/14 06:00:37;;;;;;;12.02;10.68;;;;;;;21.80;54.25;100939.53;4941119;28;20075;-56
2022/08/14 06:03:05;;;;;;;12.13;10.80;;;;;;;21.85;54.87;100945.56;4956778;28;20031;-54
2022/08/14 06:05:31;;;;;;;16.80;11.00;;;;;;;21.90;54.51;100941.09;4958967;28;20141;-55
2022/08/14 06:07:58;;;;;;;11.90;10.70;;;;;;;21.93;53.99;100943.66;4958678;28;20027;-56
2022/08/14 06:10:25;;;;;;;12.15;10.95;;;;;;;22.03;54.13;100940.91;4958214;28;20491;-52
2022/08/14 06:12:51;;;;;;;14.20;10.45;;;;;;;22.11;54.14;100936.41;4956536;28;20422;-54
2022/08/14 06:15:16;;;;;;;11.95;10.70;;;;;;;22.19;53.88;100948.44;4956987;28;20033;-56
2022/08/14 06:17:46;;;;;;;11.45;10.27;;;;;;;22.27;53.47;100943.09;4957698;28;20039;-55
2022/08/14 06:20:13;;;;;;;12.63;9.90;;;;;;;22.33;54.08;100942.13;4960179;28;20538;-55
2022/08/14 06:22:40;;;;;;;12.60;10.63;;;;;;;22.38;54.18;100946.34;4958783;28;20942;-56
2022/08/14 06:25:06;;;;;;;12.52;10.23;;;;;;;22.48;53.70;100947.91;4959947;28;20031;-55
2022/08/14 06:27:43;;;;;;;12.20;9.75;;;;;;;22.60;53.35;100940.69;4960202;28;20104;-49
2022/08/14 06:30:11;;;;;;;12.98;10.20;;;;;;;22.64;53.35;100937.13;5039098;28;20116;-55
2022/08/14 06:32:37;;;;;;;14.15;10.15;;;;;;;22.67;53.11;100937.91;4958414;28;20082;-54
2022/08/14 06:35:07;;;;;;;13.77;9.75;;;;;;;22.79;52.84;100939.41;4958232;28;20123;-55
2022/08/14 06:37:50;;;;;;;14.13;10.43;;;;;;;22.85;52.39;100936.66;4957128;28;20038;-55
2022/08/14 06:40:21;;;;;;;11.88;9.95;;;;;;;22.91;52.70;100931.31;4958961;28;20498;-56
2022/08/14 06:42:47;;;;;;;13.20;9.93;;;;;;;22.97;52.58;100923.31;4959178;28;20031;-53
2022/08/14 06:45:13;;;;;;;14.00;9.13;;;;;;;23.07;52.94;100920.50;4956681;28;20379;-56
2022/08/14 06:47:40;;;;;;;10.80;9.20;;;;;;;23.14;52.35;100919.47;4956878;28;20497;-52
2022/08/14 06:50:09;;;;;;;12.73;10.05;;;;;;;23.21;52.00;100924.53;4957406;28;20050;-53
2022/08/14 06:52:34;;;;;;;14.20;10.75;;;;;;;23.31;51.83;100919.94;4957697;28;20042;-54
2022/08/14 06:55:00;;;;;;;11.60;9.85;;;;;;;23.37;52.97;100919.78;4960543;28;20548;-55
2022/08/14 06:57:34;;;;;;;15.40;9.68;;;;;;;23.46;51.40;100919.56;4961054;28;20034;-56
2022/08/14 07:00:00;;;;;;;10.93;9.77;;;;;;;23.54;51.58;100919.38;4961401;28;20027;-54
2022/08/14 07:07:53;;;;;;;13.15;9.77;;;;;;;23.83;50.81;100913.41;4972602;28;20609;-56
2022/08/14 07:10:21;;;;;;;14.95;9.98;;;;;;;23.90;50.87;100917.59;4959570;28;20031;-56
2022/08/14 07:12:47;;;;;;;13.88;10.23;;;;;;;23.95;50.48;100914.84;4960389;28;20403;-55
2022/08/14 07:15:13;;;;;;;10.93;9.77;;;;;;;24.04;50.74;100920.75;4958961;28;20042;-54
2022/08/14 07:17:47;;;;;;;13.02;9.25;;;;;;;24.16;50.66;100921.31;4958529;28;20443;-56
2022/08/14 07:20:13;;;;;;;14.07;9.60;;;;;;;24.24;50.87;100916.69;4960291;28;20034;-55
2022/08/14 07:22:38;;;;;;;10.57;9.48;;;;;;;24.33;50.53;100913.84;4961076;28;20046;-56
2022/08/14 07:25:04;;;;;;;12.07;9.05;;;;;;;24.42;50.24;100905.72;4957867;28;20104;-55
2022/08/14 07:27:30;;;;;;;11.00;8.80;;;;;;;24.55;50.62;100914.97;4954264;28;20495;-54
2022/08/14 07:29:55;;;;;;;11.50;8.60;;;;;;;24.61;49.94;100908.66;4960743;28;20046;-56
2022/08/14 07:32:21;;;;;;;15.75;8.60;;;;;;;24.65;49.87;100912.94;4958723;28;20039;-56
2022/08/14 07:34:47;;;;;;;11.32;8.30;;;;;;;24.79;50.17;100915.16;4959199;28;20506;-56
2022/08/14 07:37:12;;;;;;;11.25;9.35;;;;;;;24.86;49.29;100912.28;4959675;28;20039;-49
2022/08/14 07:39:37;;;;;;;14.15;8.20;;;;;;;24.97;49.56;100906.69;4957063;28;20053;-54
2022/08/14 07:42:03;;;;;;;9.90;8.27;;;;;;;25.11;50.66;100911.56;4965708;28;20039;-54
2022/08/14 07:44:28;;;;;;;9.90;8.00;;;;;;;25.16;50.82;100907.00;4961119;28;20071;-55
2022/08/14 07:46:54;;;;;;;11.25;7.43;;;;;;;25.23;49.80;100913.78;4961410;28;20027;-55
2022/08/14 07:49:20;;;;;;;12.50;8.80;;;;;;;25.29;49.25;100897.81;4961259;28;20035;-52
2022/08/14 07:51:46;;;;;;;14.38;8.73;;;;;;;25.38;49.23;100899.31;4961287;28;20045;-56
2022/08/14 07:54:11;;;;;;;12.35;7.95;;;;;;;25.45;49.63;100898.19;4959941;28;20391;-55
2022/08/14 07:56:37;;;;;;;12.00;7.78;;;;;;;25.57;48.76;100899.53;4961555;28;20041;-55
2022/08/14 07:59:02;;;;;;;10.82;7.82;;;;;;;25.62;48.46;100895.84;4958987;28;20122;-55
2022/08/14 08:01:32;;;;;;;12.52;8.05;;;;;;;25.70;48.69;100908.75;4960436;28;20045;-55
2022/08/14 08:04:02;;;;;;;11.15;7.75;;;;;;;25.73;48.91;100897.28;4960867;28;20067;-56
2022/08/14 08:06:28;;;;;;;9.50;7.30;;;;;;;25.86;48.34;100899.47;4961299;28;20027;-55
2022/08/14 08:08:57;;;;;;;9.10;7.45;;;;;;;25.91;47.63;100902.78;4965078;28;20035;-52
2022/08/14 08:11:24;;;;;;;9.38;7.70;;;;;;;25.96;47.84;100904.38;4961442;28;20034;-54
2022/08/14 08:13:50;;;;;;;10.48;7.75;;;;;;;26.01;47.70;100907.72;4960967;28;20737;-55
2022/08/14 08:16:20;;;;;;;11.63;7.55;;;;;;;26.10;46.85;100913.53;4965039;28;20030;-60
2022/08/14 08:18:46;;;;;;;8.88;7.50;;;;;;;26.15;46.58;100906.34;4960633;28;20483;-59
2022/08/14 08:21:11;;;;;;;9.15;7.88;;;;;;;26.22;46.86;100906.13;4962292;28;20101;-55
2022/08/14 08:23:36;;;;;;;14.98;7.53;;;;;;;26.27;46.67;100906.78;4961564;28;20096;-55
2022/08/14 08:26:02;;;;;;;14.60;7.28;;;;;;;26.34;47.29;100898.63;4960774;28;20391;-52
2022/08/14 08:28:29;;;;;;;12.02;7.72;;;;;;;26.34;46.38;100895.97;4959166;28;20503;-54
2022/08/14 08:30:59;;;;;;;8.32;6.80;;;;;;;26.40;46.07;100892.25;4963042;28;20559;-55
2022/08/14 08:33:27;;;;;;;9.40;7.43;;;;;;;26.43;45.88;100879.84;4961783;28;20084;-54
2022/08/14 08:35:57;;;;;;;10.05;6.88;;;;;;;26.54;46.08;100882.06;4962913;28;20564;-56
2022/08/14 08:38:25;;;;;;;8.15;7.35;;;;;;;26.59;46.08;100879.28;4963951;28;20045;-56
2022/08/14 08:40:54;;;;;;;12.98;6.60;;;;;;;26.67;46.01;100880.69;4962845;28;20037;-54
2022/08/14 08:43:21;;;;;;;;;;;;;;;26.71;46.10;100879.66;4961783;28;20042;-55
2022/08/14 08:46:01;;;;;;;7.88;7.07;;;;;;;26.81;45.58;100881.94;4962024;28;20431;-55
2022/08/14 08:48:29;;;;;;;10.95;6.35;;;;;;;26.88;45.12;100888.72;4962762;28;20034;-56
2022/08/14 08:50:59;;;;;;;8.60;6.22;;;;;;;26.94;44.95;100893.75;4966503;28;20573;-54
2022/08/14 08:53:32;;;;;;;10.63;6.38;;;;;;;27.00;44.68;100886.44;4966184;28;20091;-55
2022/08/14 08:55:58;;;;;;;8.13;6.07;;;;;;;27.07;44.01;100880.94;4964195;28;20544;-55
2022/08/14 08:58:24;;;;;;;7.03;5.65;;;;;;;27.16;44.53;100883.19;4965075;28;20038;-55
2022/08/14 09:00:52;;;;;;;10.02;6.30;;;;;;;27.21;44.98;100878.59;4960600;28;20031;-55
2022/08/14 09:03:20;;;;;;;8.88;7.28;;;;;;;27.21;44.67;100868.91;4958873;28;20038;-55
2022/08/14 09:05:53;;;;;;;10.02;6.70;;;;;;;27.27;44.72;100867.78;4961302;28;20552;-54
2022/08/14 09:08:25;;;;;;;6.97;6.28;;;;;;;27.37;44.56;100870.94;4965905;28;20041;-53
2022/08/14 09:10:52;;;;;;;10.93;7.53;;;;;;;27.34;44.00;100881.59;4965820;28;20027;-55
2022/08/14 09:13:18;;;;;;;11.23;7.68;;;;;;;27.35;43.32;100884.16;4963251;28;20030;-54
2022/08/14 09:15:46;;;;;;;12.30;7.57;;;;;;;27.39;43.23;100871.72;4959113;28;20092;-55
2022/08/14 09:18:14;;;;;;;11.80;7.30;;;;;;;27.41;43.06;100861.94;4963407;28;20380;-53
2022/08/14 09:20:42;;;;;;;8.85;6.95;;;;;;;27.42;42.01;100859.25;4958702;28;20282;-53
2022/08/14 09:23:12;;;;;;;12.37;6.43;;;;;;;27.48;42.42;100860.75;4958814;28;20034;-55
2022/08/14 09:25:40;;;;;;;8.13;6.20;;;;;;;27.51;42.61;100856.22;4960157;28;20301;-55
2022/08/14 09:28:06;;;;;;;11.50;5.75;;;;;;;27.58;43.27;100856.78;4959541;28;20482;-55
2022/08/14 09:30:35;;;;;;;6.65;5.88;;;;;;;27.62;43.41;100855.75;4959734;28;20043;-55
2022/08/14 09:33:03;;;;;;;8.63;5.93;;;;;;;27.75;43.14;100858.75;4957215;28;20039;-56
2022/08/14 09:35:56;;;;;;;7.55;5.20;;;;;;;27.81;42.96;100855.84;4959774;28;20062;-56
2022/08/14 09:38:46;;;;;;;9.85;5.60;;;;;;;27.94;43.46;100848.22;4963155;28;20057;-54
2022/08/14 09:41:38;;;;;;;7.47;5.82;;;;;;;27.96;41.49;100849.00;4961299;28;20080;-55
2022/08/14 09:44:13;;;;;;;7.18;5.70;;;;;;;28.03;42.49;100846.06;4959494;28;21244;-55
2022/08/14 09:46:39;;;;;;;8.27;6.03;;;;;;;28.05;41.86;100845.97;4957094;28;20430;-50
2022/08/14 09:49:06;;;;;;;8.63;5.60;;;;;;;28.12;42.67;100841.28;4956668;28;20043;-56
2022/08/14 09:51:39;;;;;;;10.77;6.60;;;;;;;28.13;42.58;100833.25;4955000;28;20031;-57
2022/08/14 09:54:09;;;;;;;7.75;6.40;;;;;;;28.18;41.71;100825.97;4956761;28;20118;-56
2022/08/14 09:56:46;;;;;;;8.07;7.22;;;;;;;28.21;42.27;100831.16;4955858;28;20483;-55
2022/08/14 09:59:15;;;;;;;9.95;7.22;;;;;;;28.28;42.47;100826.44;4954463;28;20126;-52
2022/08/14 10:01:42;;;;;;;9.18;6.45;;;;;;;28.28;42.97;100818.50;4954315;28;20117;-55
2022/08/14 10:04:37;;;;;;;7.05;5.60;;;;;;;28.36;41.21;100807.59;4959418;28;20034;-56
2022/08/14 10:07:06;;;;;;;6.88;5.65;;;;;;;28.41;40.81;100808.25;4961191;28;20058;-52
2022/08/14 10:09:32;;;;;;;6.90;5.78;;;;;;;28.46;40.71;100801.81;4954338;28;20487;-55
2022/08/14 10:11:58;;;;;;;6.78;5.30;;;;;;;28.50;41.37;100802.50;4954879;28;20566;-53
2022/08/14 10:14:29;;;;;;;7.75;6.03;;;;;;;28.52;40.60;100798.88;4954675;28;20046;-56
2022/08/14 10:16:56;;;;;;;8.02;5.30;;;;;;;28.51;40.47;100796.28;4958369;28;20042;-56
2022/08/14 10:19:27;;;;;;;6.88;5.40;;;;;;;28.61;40.20;100794.06;4955215;28;20042;-50
2022/08/14 10:22:07;;;;;;;10.95;6.32;;;;;;;28.63;41.23;100790.41;4953590;28;20142;-55
2022/08/14 10:24:40;;;;;;;8.25;6.05;;;;;;;28.65;40.15;100787.69;4960408;28;20121;-53
2022/08/14 10:27:18;;;;;;;7.10;5.10;;;;;;;28.77;40.98;100787.09;4952346;28;20134;-53
2022/08/14 10:29:49;;;;;;;;;;;;;;;28.79;40.98;100787.88;4953119;28;20562;-55
2022/08/14 10:32:14;;;;;;;5.88;5.25;;;;;;;28.91;41.01;100779.31;4952995;28;20281;-55
2022/08/14 10:34:40;;;;;;;7.13;5.45;;;;;;;28.92;41.33;100782.84;4954508;28;20027;-55
2022/08/14 10:37:15;;;;;;;6.45;5.45;;;;;;;28.92;40.60;100772.25;4955523;28;20070;-55
2022/08/14 10:39:43;;;;;;;9.00;5.32;;;;;;;28.95;40.37;100775.63;4955321;28;20552;-53
2022/08/14 10:42:13;;;;;;;5.18;4.50;;;;;;;28.95;38.63;100767.69;4956724;28;20411;-54
2022/08/14 10:44:41;;;;;;;7.53;4.53;;;;;;;29.03;39.30;100764.66;4955122;28;20066;-54
2022/08/14 10:47:09;;;;;;;9.45;5.10;;;;;;;29.12;39.41;100761.53;4955483;28;20474;-56
2022/08/14 10:49:36;;;;;;;7.03;5.13;;;;;;;29.15;40.04;100763.19;4956045;28;20510;-56
2022/08/14 10:52:08;;;;;;;7.87;5.07;;;;;;;29.17;39.03;100748.06;4954157;28;20074;-53
2022/08/14 10:54:43;;;;;;;4.82;4.22;;;;;;;29.21;38.03;100754.94;4955011;28;20026;-55
2022/08/14 10:57:17;;;;;;;5.70;4.55;;;;;;;29.22;38.00;100756.63;4955419;28;20034;-53
2022/08/14 10:59:54;;;;;;;6.65;4.93;;;;;;;29.25;38.71;100760.00;4959319;28;20039;-55
2022/08/14 11:02:36;;;;;;;5.05;4.55;;;;;;;29.32;38.68;100753.44;4955114;28;20515;-56
2022/08/14 11:05:12;;;;;;;5.95;4.75;;;;;;;29.43;38.99;100746.75;4953167;28;20032;-53
2022/08/14 11:07:40;;;;;;;7.20;4.70;;;;;;;29.50;38.76;100745.47;4957756;28;20042;-55
2022/08/14 11:10:14;;;;;;;11.35;5.25;;;;;;;29.50;37.72;100735.72;4952298;28;20480;-56
2022/08/14 11:12:55;;;;;;;5.57;5.00;;;;;;;29.57;37.87;100741.59;4954895;28;20560;-56
2022/08/14 11:15:28;;;;;;;5.28;4.78;;;;;;;29.62;36.49;100743.06;4955507;28;20054;-55
2022/08/14 11:17:55;;;;;;;5.35;4.32;;;;;;;29.65;35.80;100742.88;4955073;28;20507;-55
2022/08/14 11:20:23;;;;;;;5.05;4.13;;;;;;;29.65;35.68;100742.88;4955477;28;20061;-58
2022/08/14 11:22:54;;;;;;;6.22;3.92;;;;;;;29.71;35.26;100739.06;4953797;28;20046;-51
2022/08/14 11:25:22;;;;;;;4.18;3.72;;;;;;;29.80;34.41;100743.03;4953990;28;20023;-52
2022/08/14 11:27:50;;;;;;;4.78;3.65;;;;;;;29.86;35.52;100738.25;4961421;28;20035;-54
2022/08/14 11:30:21;;;;;;;4.75;4.25;;;;;;;29.89;36.78;100729.25;4956904;28;20897;-54
2022/08/14 11:32:48;;;;;;;8.30;4.65;;;;;;;29.90;36.14;100736.25;4949185;28;20425;-55
2022/08/14 11:35:16;;;;;;;6.05;4.20;;;;;;;29.96;36.50;100729.78;4952992;28;20120;-54
2022/08/14 11:37:53;;;;;;;5.30;4.30;;;;;;;29.95;36.57;100720.97;4957688;28;20034;-54
2022/08/14 11:40:22;;;;;;;4.70;4.27;;;;;;;29.97;36.63;100727.03;4958712;28;20425;-55
2022/08/14 11:42:49;;;;;;;5.97;4.25;;;;;;;30.03;36.32;100739.09;4960868;28;20301;-55
2022/08/14 11:45:15;;;;;;;5.80;4.00;;;;;;;30.12;36.01;100738.63;4962336;28;20478;-54